sensor_id;sensor_type;location;lat;lon;timestamp;P1;durP1;ratioP1;P2;durP2;ratioP2
32333;SDS011;18810;53.040;8.850;2022-12-29T00:01:25;11.43;;;10.23;;
32333;SDS011;18810;53.040;8.850;2022-12-29T00:03:50;10.70;;;9.60;;
32333;SDS011;18810;53.040;8.850;2022-12-29T00:06:16;13.60;;;9.65;;
32333;SDS011;18810;53.040;8.850;2022-12-29T00:08:42;10.98;;;9.80;;
32333;SDS011;18810;53.040;8.850;2022-12-29T00:11:09;9.98;;;8.98;;
32333;SDS011;18810;53.040;8.850;2022-12-29T00:13:36;12.82;;;9.18;;
32333;SDS011;18810;53.040;8.850;2022-12-29T00:16:21;10.30;;;9.30;;
32333;SDS011;18810;53.040;8.850;2022-12-29T00:18:46;10.60;;;9.50;;
32333;SDS011;18810;53.040;8.850;2022-12-29T00:21:16;10.50;;;9.40;;
32333;SDS011;18810;53.040;8.850;2022-12-29T00:24:03;11.02;;;9.55;;
32333;SDS011;18810;53.040;8.850;2022-12-29T00:27:09;10.20;;;9.18;;
32333;SDS011;18810;53.040;8.850;2022-12-29T00:29:53;11.07;;;9.80;;
32333;SDS011;18810;53.040;8.850;2022-12-29T00:32:37;10.50;;;9.50;;
32333;SDS011;18810;53.040;8.850;2022-12-29T00:35:27;10.90;;;9.75;;
32333;SDS011;18810;53.040;8.850;2022-12-29T00:37:57;11.38;;;9.77;;
32333;SDS011;18810;53.040;8.850;2022-12-29T00:40:44;11.70;;;10.55;;
32333;SDS011;18810;53.040;8.850;2022-12-29T00:43:28;11.63;;;10.38;;
32333;SDS011;18810;53.040;8.850;2022-12-29T00:46:12;12.95;;;11.35;;
32333;SDS011;18810;53.040;8.850;2022-12-29T00:48:38;12.15;;;10.80;;
32333;SDS011;18810;53.040;8.850;2022-12-29T00:51:22;13.07;;;11.43;;
32333;SDS011;18810;53.040;8.850;2022-12-29T00:53:48;12.80;;;11.40;;
32333;SDS011;18810;53.040;8.850;2022-12-29T00:56:14;13.25;;;11.05;;
32333;SDS011;18810;53.040;8.850;2022-12-29T00:58:40;12.38;;;11.07;;
32333;SDS011;18810;53.040;8.850;2022-12-29T01:01:06;12.60;;;11.27;;
32333;SDS011;18810;53.040;8.850;2022-12-29T01:03:33;20.92;;;12.00;;
32333;SDS011;18810;53.040;8.850;2022-12-29T01:06:01;12.88;;;10.88;;
32333;SDS011;18810;53.040;8.850;2022-12-29T01:08:28;14.25;;;11.07;;
32333;SDS011;18810;53.040;8.850;2022-12-29T01:10:58;11.68;;;10.35;;
32333;SDS011;18810;53.040;8.850;2022-12-29T01:13:34;11.10;;;10.00;;
32333;SDS011;18810;53.040;8.850;2022-12-29T01:16:02;10.52;;;9.48;;
32333;SDS011;18810;53.040;8.850;2022-12-29T01:18:27;10.90;;;9.88;;
32333;SDS011;18810;53.040;8.850;2022-12-29T01:21:00;10.32;;;9.30;;
32333;SDS011;18810;53.040;8.850;2022-12-29T01:23:27;10.80;;;9.70;;
32333;SDS011;18810;53.040;8.850;2022-12-29T01:25:53;12.07;;;10.38;;
32333;SDS011;18810;53.040;8.850;2022-12-29T01:28:19;10.68;;;9.57;;
32333;SDS011;18810;53.040;8.850;2022-12-29T01:30:45;10.88;;;9.77;;
32333;SDS011;18810;53.040;8.850;2022-12-29T01:33:11;11.15;;;9.98;;
32333;SDS011;18810;53.040;8.850;2022-12-29T01:35:37;10.25;;;9.25;;
32333;SDS011;18810;53.040;8.850;2022-12-29T01:38:02;11.18;;;9.98;;
32333;SDS011;18810;53.040;8.850;2022-12-29T01:40:31;12.60;;;10.52;;
32333;SDS011;18810;53.040;8.850;2022-12-29T01:42:57;11.35;;;10.10;;
32333;SDS011;18810;53.040;8.850;2022-12-29T01:45:23;12.02;;;9.65;;
32333;SDS011;18810;53.040;8.850;2022-12-29T01:47:53;11.90;;;10.10;;
32333;SDS011;18810;53.040;8.850;2022-12-29T01:50:26;11.32;;;9.88;;
32333;SDS011;18810;53.040;8.850;2022-12-29T01:53:01;10.50;;;9.50;;
32333;SDS011;18810;53.040;8.850;2022-12-29T01:55:43;11.40;;;10.30;;
32333;SDS011;18810;53.040;8.850;2022-12-29T01:58:13;10.73;;;9.73;;
32333;SDS011;18810;53.040;8.850;2022-12-29T02:00:40;10.57;;;9.57;;
32333;SDS011;18810;53.040;8.850;2022-12-29T02:03:06;10.70;;;9.63;;
32333;SDS011;18810;53.040;8.850;2022-12-29T02:08:31;10.77;;;9.80;;
32333;SDS011;18810;53.040;8.850;2022-12-29T02:10:57;10.02;;;9.07;;
32333;SDS011;18810;53.040;8.850;2022-12-29T02:13:25;10.05;;;9.02;;
32333;SDS011;18810;53.040;8.850;2022-12-29T02:35:23;10.25;;;9.20;;
32333;SDS011;18810;53.040;8.850;2022-12-29T02:37:59;9.77;;;8.70;;
32333;SDS011;18810;53.040;8.850;2022-12-29T02:40:46;10.27;;;8.05;;
32333;SDS011;18810;53.040;8.850;2022-12-29T02:48:43;9.63;;;8.82;;
32333;SDS011;18810;53.040;8.850;2022-12-29T02:51:20;10.13;;;9.18;;
32333;SDS011;18810;53.040;8.850;2022-12-29T02:53:53;10.48;;;9.57;;
32333;SDS011;18810;53.040;8.850;2022-12-29T02:56:39;10.73;;;9.32;;
32333;SDS011;18810;53.040;8.850;2022-12-29T02:59:05;9.65;;;8.85;;
32333;SDS011;18810;53.040;8.850;2022-12-29T03:04:36;8.75;;;7.95;;
32333;SDS011;18810;53.040;8.850;2022-12-29T03:10:17;7.70;;;7.03;;
32333;SDS011;18810;53.040;8.850;2022-12-29T03:15:39;7.10;;;6.50;;
32333;SDS011;18810;53.040;8.850;2022-12-29T03:18:30;6.30;;;5.70;;
32333;SDS011;18810;53.040;8.850;2022-12-29T03:21:11;6.68;;;5.47;;
32333;SDS011;18810;53.040;8.850;2022-12-29T03:24:20;5.40;;;4.93;;
32333;SDS011;18810;53.040;8.850;2022-12-29T03:26:50;4.50;;;4.20;;
32333;SDS011;18810;53.040;8.850;2022-12-29T03:29:20;4.22;;;3.90;;
32333;SDS011;18810;53.040;8.850;2022-12-29T03:31:46;4.60;;;4.10;;
32333;SDS011;18810;53.040;8.850;2022-12-29T03:34:14;5.00;;;3.90;;
32333;SDS011;18810;53.040;8.850;2022-12-29T03:36:44;4.70;;;4.30;;
32333;SDS011;18810;53.040;8.850;2022-12-29T03:39:17;5.25;;;4.47;;
32333;SDS011;18810;53.040;8.850;2022-12-29T03:41:45;5.20;;;4.40;;
32333;SDS011;18810;53.040;8.850;2022-12-29T03:44:14;4.97;;;4.57;;
32333;SDS011;18810;53.040;8.850;2022-12-29T03:46:39;5.10;;;4.70;;
32333;SDS011;18810;53.040;8.850;2022-12-29T03:49:05;5.32;;;4.85;;
32333;SDS011;18810;53.040;8.850;2022-12-29T03:51:31;5.18;;;4.70;;
32333;SDS011;18810;53.040;8.850;2022-12-29T03:53:56;4.72;;;4.32;;
32333;SDS011;18810;53.040;8.850;2022-12-29T03:56:22;5.35;;;4.85;;
32333;SDS011;18810;53.040;8.850;2022-12-29T03:58:48;4.78;;;4.38;;
32333;SDS011;18810;53.040;8.850;2022-12-29T04:01:13;4.88;;;4.47;;
32333;SDS011;18810;53.040;8.850;2022-12-29T04:03:39;5.15;;;4.70;;
32333;SDS011;18810;53.040;8.850;2022-12-29T04:06:05;5.38;;;4.88;;
32333;SDS011;18810;53.040;8.850;2022-12-29T04:08:31;5.90;;;5.40;;
32333;SDS011;18810;53.040;8.850;2022-12-29T04:10:56;6.13;;;5.63;;
32333;SDS011;18810;53.040;8.850;2022-12-29T04:13:22;7.55;;;6.55;;
32333;SDS011;18810;53.040;8.850;2022-12-29T04:15:48;7.90;;;7.03;;
32333;SDS011;18810;53.040;8.850;2022-12-29T04:18:14;8.23;;;7.40;;
32333;SDS011;18810;53.040;8.850;2022-12-29T04:20:41;8.40;;;7.38;;
32333;SDS011;18810;53.040;8.850;2022-12-29T04:23:25;9.18;;;8.27;;
32333;SDS011;18810;53.040;8.850;2022-12-29T04:25:55;9.18;;;7.72;;
32333;SDS011;18810;53.040;8.850;2022-12-29T04:28:21;9.82;;;8.85;;
32333;SDS011;18810;53.040;8.850;2022-12-29T04:30:47;9.45;;;8.52;;
32333;SDS011;18810;53.040;8.850;2022-12-29T04:33:13;9.18;;;8.38;;
32333;SDS011;18810;53.040;8.850;2022-12-29T04:35:39;9.52;;;8.52;;
32333;SDS011;18810;53.040;8.850;2022-12-29T04:38:04;9.35;;;8.27;;
32333;SDS011;18810;53.040;8.850;2022-12-29T04:40:30;10.18;;;9.07;;
32333;SDS011;18810;53.040;8.850;2022-12-29T04:42:56;10.35;;;8.82;;
32333;SDS011;18810;53.040;8.850;2022-12-29T04:45:22;8.85;;;8.00;;
32333;SDS011;18810;53.040;8.850;2022-12-29T04:47:47;9.10;;;8.30;;
32333;SDS011;18810;53.040;8.850;2022-12-29T04:50:13;9.02;;;8.18;;
32333;SDS011;18810;53.040;8.850;2022-12-29T04:52:39;8.80;;;8.00;;
32333;SDS011;18810;53.040;8.850;2022-12-29T04:55:05;7.93;;;7.13;;
32333;SDS011;18810;53.040;8.850;2022-12-29T04:57:31;7.85;;;7.05;;
32333;SDS011;18810;53.040;8.850;2022-12-29T04:59:57;7.15;;;6.45;;
32333;SDS011;18810;53.040;8.850;2022-12-29T05:02:22;7.63;;;6.90;;
32333;SDS011;18810;53.040;8.850;2022-12-29T05:04:49;6.95;;;6.25;;
32333;SDS011;18810;53.040;8.850;2022-12-29T05:07:14;6.82;;;6.22;;
32333;SDS011;18810;53.040;8.850;2022-12-29T05:09:40;7.85;;;6.10;;
32333;SDS011;18810;53.040;8.850;2022-12-29T05:12:06;6.55;;;5.95;;
32333;SDS011;18810;53.040;8.850;2022-12-29T05:14:32;7.30;;;6.20;;
32333;SDS011;18810;53.040;8.850;2022-12-29T05:16:58;6.07;;;5.57;;
32333;SDS011;18810;53.040;8.850;2022-12-29T05:19:23;6.00;;;4.50;;
32333;SDS011;18810;53.040;8.850;2022-12-29T05:21:49;3.92;;;3.55;;
32333;SDS011;18810;53.040;8.850;2022-12-29T05:24:15;3.55;;;3.22;;
32333;SDS011;18810;53.040;8.850;2022-12-29T05:26:41;4.55;;;4.10;;
32333;SDS011;18810;53.040;8.850;2022-12-29T05:29:07;10.85;;;5.35;;
32333;SDS011;18810;53.040;8.850;2022-12-29T05:31:33;8.10;;;6.40;;
32333;SDS011;18810;53.040;8.850;2022-12-29T05:34:00;8.52;;;5.97;;
32333;SDS011;18810;53.040;8.850;2022-12-29T05:36:26;8.50;;;6.82;;
32333;SDS011;18810;53.040;8.850;2022-12-29T05:38:52;7.70;;;6.75;;
32333;SDS011;18810;53.040;8.850;2022-12-29T05:41:18;10.27;;;7.82;;
32333;SDS011;18810;53.040;8.850;2022-12-29T05:43:43;10.90;;;8.27;;
32333;SDS011;18810;53.040;8.850;2022-12-29T05:46:09;12.00;;;8.70;;
32333;SDS011;18810;53.040;8.850;2022-12-29T05:48:35;11.35;;;9.82;;
32333;SDS011;18810;53.040;8.850;2022-12-29T05:51:01;10.90;;;9.13;;
32333;SDS011;18810;53.040;8.850;2022-12-29T05:53:27;9.10;;;8.20;;
32333;SDS011;18810;53.040;8.850;2022-12-29T05:55:52;7.80;;;6.90;;
32333;SDS011;18810;53.040;8.850;2022-12-29T05:58:18;9.35;;;6.45;;
32333;SDS011;18810;53.040;8.850;2022-12-29T06:00:44;6.82;;;6.00;;
32333;SDS011;18810;53.040;8.850;2022-12-29T06:03:10;8.55;;;6.13;;
32333;SDS011;18810;53.040;8.850;2022-12-29T06:05:36;8.45;;;5.82;;
32333;SDS011;18810;53.040;8.850;2022-12-29T06:08:01;8.13;;;5.72;;
32333;SDS011;18810;53.040;8.850;2022-12-29T06:10:27;8.48;;;5.85;;
32333;SDS011;18810;53.040;8.850;2022-12-29T06:12:53;8.85;;;5.47;;
32333;SDS011;18810;53.040;8.850;2022-12-29T06:15:19;7.15;;;6.15;;
32333;SDS011;18810;53.040;8.850;2022-12-29T06:17:44;6.50;;;5.80;;
32333;SDS011;18810;53.040;8.850;2022-12-29T06:20:11;6.88;;;6.25;;
32333;SDS011;18810;53.040;8.850;2022-12-29T06:22:37;7.10;;;6.30;;
32333;SDS011;18810;53.040;8.850;2022-12-29T06:25:03;7.95;;;6.03;;
32333;SDS011;18810;53.040;8.850;2022-12-29T06:27:30;6.70;;;6.10;;
32333;SDS011;18810;53.040;8.850;2022-12-29T06:29:56;6.72;;;6.03;;
32333;SDS011;18810;53.040;8.850;2022-12-29T06:32:22;6.82;;;6.13;;
32333;SDS011;18810;53.040;8.850;2022-12-29T06:34:47;8.55;;;5.55;;
32333;SDS011;18810;53.040;8.850;2022-12-29T06:37:13;7.75;;;5.30;;
32333;SDS011;18810;53.040;8.850;2022-12-29T06:39:39;5.78;;;5.30;;
32333;SDS011;18810;53.040;8.850;2022-12-29T06:42:05;6.70;;;5.72;;
32333;SDS011;18810;53.040;8.850;2022-12-29T06:44:31;6.85;;;5.00;;
32333;SDS011;18810;53.040;8.850;2022-12-29T06:46:57;6.55;;;5.32;;
32333;SDS011;18810;53.040;8.850;2022-12-29T06:49:23;8.35;;;6.10;;
32333;SDS011;18810;53.040;8.850;2022-12-29T06:51:48;8.95;;;6.72;;
32333;SDS011;18810;53.040;8.850;2022-12-29T06:54:14;8.55;;;6.93;;
32333;SDS011;18810;53.040;8.850;2022-12-29T06:56:40;6.93;;;5.78;;
32333;SDS011;18810;53.040;8.850;2022-12-29T06:59:06;7.57;;;6.15;;
32333;SDS011;18810;53.040;8.850;2022-12-29T07:01:31;8.43;;;5.68;;
32333;SDS011;18810;53.040;8.850;2022-12-29T07:03:57;9.43;;;5.75;;
32333;SDS011;18810;53.040;8.850;2022-12-29T07:06:23;7.85;;;5.43;;
32333;SDS011;18810;53.040;8.850;2022-12-29T07:08:49;7.95;;;4.90;;
32333;SDS011;18810;53.040;8.850;2022-12-29T07:11:14;8.13;;;4.68;;
32333;SDS011;18810;53.040;8.850;2022-12-29T07:13:40;6.85;;;4.68;;
32333;SDS011;18810;53.040;8.850;2022-12-29T07:16:06;9.57;;;4.10;;
32333;SDS011;18810;53.040;8.850;2022-12-29T07:18:34;5.50;;;4.15;;
32333;SDS011;18810;53.040;8.850;2022-12-29T07:21:00;5.70;;;4.05;;
32333;SDS011;18810;53.040;8.850;2022-12-29T07:23:29;6.35;;;3.35;;
32333;SDS011;18810;53.040;8.850;2022-12-29T07:26:04;4.03;;;3.35;;
32333;SDS011;18810;53.040;8.850;2022-12-29T07:28:32;5.57;;;3.65;;
32333;SDS011;18810;53.040;8.850;2022-12-29T07:30:58;4.15;;;3.33;;
32333;SDS011;18810;53.040;8.850;2022-12-29T07:33:24;3.88;;;2.92;;
32333;SDS011;18810;53.040;8.850;2022-12-29T07:35:50;7.72;;;3.28;;
32333;SDS011;18810;53.040;8.850;2022-12-29T07:38:16;5.43;;;3.30;;
32333;SDS011;18810;53.040;8.850;2022-12-29T07:40:42;4.55;;;3.00;;
32333;SDS011;18810;53.040;8.850;2022-12-29T07:43:08;3.70;;;2.63;;
32333;SDS011;18810;53.040;8.850;2022-12-29T07:45:34;5.97;;;2.53;;
32333;SDS011;18810;53.040;8.850;2022-12-29T07:47:59;3.15;;;2.50;;
32333;SDS011;18810;53.040;8.850;2022-12-29T07:50:27;4.50;;;2.47;;
32333;SDS011;18810;53.040;8.850;2022-12-29T07:52:53;4.93;;;2.90;;
32333;SDS011;18810;53.040;8.850;2022-12-29T07:55:18;6.20;;;2.20;;
32333;SDS011;18810;53.040;8.850;2022-12-29T07:57:44;4.68;;;2.17;;
32333;SDS011;18810;53.040;8.850;2022-12-29T08:00:10;5.45;;;2.35;;
32333;SDS011;18810;53.040;8.850;2022-12-29T08:02:36;4.45;;;2.13;;
32333;SDS011;18810;53.040;8.850;2022-12-29T08:05:02;4.80;;;2.00;;
32333;SDS011;18810;53.040;8.850;2022-12-29T08:07:28;6.00;;;2.00;;
32333;SDS011;18810;53.040;8.850;2022-12-29T08:09:53;3.80;;;1.65;;
32333;SDS011;18810;53.040;8.850;2022-12-29T08:12:19;4.68;;;1.92;;
32333;SDS011;18810;53.040;8.850;2022-12-29T08:14:45;5.63;;;1.70;;
32333;SDS011;18810;53.040;8.850;2022-12-29T08:17:10;5.20;;;1.70;;
32333;SDS011;18810;53.040;8.850;2022-12-29T08:19:36;4.75;;;1.95;;
32333;SDS011;18810;53.040;8.850;2022-12-29T08:22:02;4.00;;;2.10;;
32333;SDS011;18810;53.040;8.850;2022-12-29T08:24:28;8.35;;;3.42;;
32333;SDS011;18810;53.040;8.850;2022-12-29T08:26:54;3.95;;;2.65;;
32333;SDS011;18810;53.040;8.850;2022-12-29T08:29:19;6.97;;;2.40;;
32333;SDS011;18810;53.040;8.850;2022-12-29T08:31:46;5.35;;;2.00;;
32333;SDS011;18810;53.040;8.850;2022-12-29T08:34:12;2.83;;;1.40;;
32333;SDS011;18810;53.040;8.850;2022-12-29T08:36:38;9.15;;;2.10;;
32333;SDS011;18810;53.040;8.850;2022-12-29T08:39:04;4.47;;;2.13;;
32333;SDS011;18810;53.040;8.850;2022-12-29T08:41:30;5.10;;;2.05;;
32333;SDS011;18810;53.040;8.850;2022-12-29T08:43:55;5.72;;;2.45;;
32333;SDS011;18810;53.040;8.850;2022-12-29T08:46:21;6.97;;;2.17;;
32333;SDS011;18810;53.040;8.850;2022-12-29T08:48:47;5.80;;;2.25;;
32333;SDS011;18810;53.040;8.850;2022-12-29T08:51:12;3.97;;;2.50;;
32333;SDS011;18810;53.040;8.850;2022-12-29T08:53:38;8.48;;;2.15;;
32333;SDS011;18810;53.040;8.850;2022-12-29T08:56:04;7.35;;;1.92;;
32333;SDS011;18810;53.040;8.850;2022-12-29T08:58:31;10.60;;;2.50;;
32333;SDS011;18810;53.040;8.850;2022-12-29T09:00:57;9.15;;;1.90;;
32333;SDS011;18810;53.040;8.850;2022-12-29T09:03:23;5.85;;;2.15;;
32333;SDS011;18810;53.040;8.850;2022-12-29T09:05:50;3.58;;;1.88;;
32333;SDS011;18810;53.040;8.850;2022-12-29T09:08:17;5.60;;;1.83;;
32333;SDS011;18810;53.040;8.850;2022-12-29T09:10:43;5.57;;;1.58;;
32333;SDS011;18810;53.040;8.850;2022-12-29T09:13:10;7.28;;;2.25;;
32333;SDS011;18810;53.040;8.850;2022-12-29T09:15:37;5.93;;;1.73;;
32333;SDS011;18810;53.040;8.850;2022-12-29T09:18:03;4.55;;;1.63;;
32333;SDS011;18810;53.040;8.850;2022-12-29T09:20:29;5.43;;;1.98;;
32333;SDS011;18810;53.040;8.850;2022-12-29T09:22:55;7.38;;;1.80;;
32333;SDS011;18810;53.040;8.850;2022-12-29T09:25:21;5.65;;;1.63;;
32333;SDS011;18810;53.040;8.850;2022-12-29T09:27:49;7.32;;;2.17;;
32333;SDS011;18810;53.040;8.850;2022-12-29T09:30:17;5.63;;;1.98;;
32333;SDS011;18810;53.040;8.850;2022-12-29T09:32:44;5.45;;;1.77;;
32333;SDS011;18810;53.040;8.850;2022-12-29T09:35:09;4.18;;;1.67;;
32333;SDS011;18810;53.040;8.850;2022-12-29T09:37:36;6.38;;;1.73;;
32333;SDS011;18810;53.040;8.850;2022-12-29T09:40:02;4.05;;;1.77;;
32333;SDS011;18810;53.040;8.850;2022-12-29T09:42:32;7.50;;;1.77;;
32333;SDS011;18810;53.040;8.850;2022-12-29T09:45:44;9.25;;;1.90;;
32333;SDS011;18810;53.040;8.850;2022-12-29T09:48:16;7.20;;;1.92;;
32333;SDS011;18810;53.040;8.850;2022-12-29T09:50:47;5.82;;;1.77;;
32333;SDS011;18810;53.040;8.850;2022-12-29T09:53:51;7.20;;;1.80;;
32333;SDS011;18810;53.040;8.850;2022-12-29T09:56:17;6.78;;;1.85;;
32333;SDS011;18810;53.040;8.850;2022-12-29T10:04:09;10.57;;;1.58;;
32333;SDS011;18810;53.040;8.850;2022-12-29T10:17:54;6.30;;;1.90;;
32333;SDS011;18810;53.040;8.850;2022-12-29T10:23:26;3.63;;;1.52;;
32333;SDS011;18810;53.040;8.850;2022-12-29T10:25:56;7.10;;;2.25;;
32333;SDS011;18810;53.040;8.850;2022-12-29T10:28:38;8.02;;;1.50;;
32333;SDS011;18810;53.040;8.850;2022-12-29T10:31:15;3.50;;;1.00;;
32333;SDS011;18810;53.040;8.850;2022-12-29T10:33:45;3.70;;;0.93;;
32333;SDS011;18810;53.040;8.850;2022-12-29T10:39:25;3.75;;;0.98;;
32333;SDS011;18810;53.040;8.850;2022-12-29T10:41:59;5.57;;;1.50;;
32333;SDS011;18810;53.040;8.850;2022-12-29T10:44:45;2.22;;;1.30;;
32333;SDS011;18810;53.040;8.850;2022-12-29T10:47:18;2.75;;;1.40;;
32333;SDS011;18810;53.040;8.850;2022-12-29T10:49:47;3.85;;;1.58;;
32333;SDS011;18810;53.040;8.850;2022-12-29T10:52:14;5.60;;;2.35;;
32333;SDS011;18810;53.040;8.850;2022-12-29T11:00:16;4.93;;;1.77;;
32333;SDS011;18810;53.040;8.850;2022-12-29T11:08:16;7.70;;;2.13;;
32333;SDS011;18810;53.040;8.850;2022-12-29T11:10:45;7.97;;;2.13;;
32333;SDS011;18810;53.040;8.850;2022-12-29T11:13:13;6.78;;;2.08;;
32333;SDS011;18810;53.040;8.850;2022-12-29T11:16:02;9.48;;;2.08;;
32333;SDS011;18810;53.040;8.850;2022-12-29T11:18:38;6.55;;;2.88;;
32333;SDS011;18810;53.040;8.850;2022-12-29T11:21:25;5.60;;;2.05;;
32333;SDS011;18810;53.040;8.850;2022-12-29T11:24:34;7.07;;;1.80;;
32333;SDS011;18810;53.040;8.850;2022-12-29T11:26:47;11.93;;;2.30;;
32333;SDS011;18810;53.040;8.850;2022-12-29T11:31:45;4.25;;;2.20;;
32333;SDS011;18810;53.040;8.850;2022-12-29T11:34:23;7.72;;;2.08;;
32333;SDS011;18810;53.040;8.850;2022-12-29T11:37:06;8.23;;;2.70;;
32333;SDS011;18810;53.040;8.850;2022-12-29T11:42:04;8.05;;;2.30;;
32333;SDS011;18810;53.040;8.850;2022-12-29T11:44:37;8.38;;;2.28;;
32333;SDS011;18810;53.040;8.850;2022-12-29T11:47:08;11.02;;;2.00;;
32333;SDS011;18810;53.040;8.850;2022-12-29T11:49:55;8.35;;;1.73;;
32333;SDS011;18810;53.040;8.850;2022-12-29T11:52:24;6.55;;;1.80;;
32333;SDS011;18810;53.040;8.850;2022-12-29T11:54:53;11.45;;;2.60;;
32333;SDS011;18810;53.040;8.850;2022-12-29T11:57:21;10.60;;;2.20;;
32333;SDS011;18810;53.040;8.850;2022-12-29T11:59:52;7.25;;;1.75;;
32333;SDS011;18810;53.040;8.850;2022-12-29T12:02:31;7.97;;;1.70;;
32333;SDS011;18810;53.040;8.850;2022-12-29T12:05:35;9.75;;;2.35;;
32333;SDS011;18810;53.040;8.850;2022-12-29T12:08:09;8.32;;;2.08;;
32333;SDS011;18810;53.040;8.850;2022-12-29T12:10:37;8.52;;;2.50;;
32333;SDS011;18810;53.040;8.850;2022-12-29T12:13:18;7.95;;;1.98;;
32333;SDS011;18810;53.040;8.850;2022-12-29T12:16:04;8.32;;;2.42;;
32333;SDS011;18810;53.040;8.850;2022-12-29T12:18:39;4.40;;;1.83;;
32333;SDS011;18810;53.040;8.850;2022-12-29T12:24:17;6.28;;;1.90;;
32333;SDS011;18810;53.040;8.850;2022-12-29T12:26:52;7.07;;;2.00;;
32333;SDS011;18810;53.040;8.850;2022-12-29T12:29:43;7.68;;;1.73;;
32333;SDS011;18810;53.040;8.850;2022-12-29T12:32:15;3.63;;;1.63;;
32333;SDS011;18810;53.040;8.850;2022-12-29T12:34:48;7.10;;;1.77;;
32333;SDS011;18810;53.040;8.850;2022-12-29T12:48:08;9.18;;;1.80;;
32333;SDS011;18810;53.040;8.850;2022-12-29T13:20:40;11.35;;;2.20;;
32333;SDS011;18810;53.040;8.850;2022-12-29T13:22:59;8.02;;;2.17;;
32333;SDS011;18810;53.040;8.850;2022-12-29T13:33:28;6.68;;;2.33;;
32333;SDS011;18810;53.040;8.850;2022-12-29T13:36:23;7.25;;;2.20;;
32333;SDS011;18810;53.040;8.850;2022-12-29T13:39:05;8.68;;;2.60;;
32333;SDS011;18810;53.040;8.850;2022-12-29T13:41:45;5.20;;;2.25;;
32333;SDS011;18810;53.040;8.850;2022-12-29T13:50:03;8.57;;;2.55;;
32333;SDS011;18810;53.040;8.850;2022-12-29T13:55:22;8.13;;;2.50;;
32333;SDS011;18810;53.040;8.850;2022-12-29T13:58:05;5.63;;;1.98;;
32333;SDS011;18810;53.040;8.850;2022-12-29T14:01:02;7.18;;;2.38;;
32333;SDS011;18810;53.040;8.850;2022-12-29T14:08:38;6.18;;;2.25;;
32333;SDS011;18810;53.040;8.850;2022-12-29T14:11:07;6.93;;;2.35;;
32333;SDS011;18810;53.040;8.850;2022-12-29T14:13:37;10.38;;;2.08;;
32333;SDS011;18810;53.040;8.850;2022-12-29T14:16:04;5.95;;;2.22;;
32333;SDS011;18810;53.040;8.850;2022-12-29T14:18:31;6.47;;;2.55;;
32333;SDS011;18810;53.040;8.850;2022-12-29T14:27:01;7.00;;;2.50;;
32333;SDS011;18810;53.040;8.850;2022-12-29T14:29:50;5.60;;;2.25;;
32333;SDS011;18810;53.040;8.850;2022-12-29T14:34:52;8.43;;;2.28;;
32333;SDS011;18810;53.040;8.850;2022-12-29T14:37:32;6.07;;;2.05;;
32333;SDS011;18810;53.040;8.850;2022-12-29T14:42:27;5.88;;;2.65;;
32333;SDS011;18810;53.040;8.850;2022-12-29T14:45:06;8.63;;;2.33;;
32333;SDS011;18810;53.040;8.850;2022-12-29T14:47:37;4.80;;;2.35;;
32333;SDS011;18810;53.040;8.850;2022-12-29T14:50:51;4.18;;;2.35;;
32333;SDS011;18810;53.040;8.850;2022-12-29T14:53:02;7.85;;;2.60;;
32333;SDS011;18810;53.040;8.850;2022-12-29T14:58:06;8.00;;;3.03;;
32333;SDS011;18810;53.040;8.850;2022-12-29T15:00:54;8.82;;;2.90;;
32333;SDS011;18810;53.040;8.850;2022-12-29T15:03:25;6.57;;;3.13;;
32333;SDS011;18810;53.040;8.850;2022-12-29T15:06:13;7.35;;;3.13;;
32333;SDS011;18810;53.040;8.850;2022-12-29T15:08:46;9.43;;;3.25;;
32333;SDS011;18810;53.040;8.850;2022-12-29T15:11:14;5.95;;;2.92;;
32333;SDS011;18810;53.040;8.850;2022-12-29T15:13:45;6.40;;;2.67;;
32333;SDS011;18810;53.040;8.850;2022-12-29T15:16:30;9.25;;;3.15;;
32333;SDS011;18810;53.040;8.850;2022-12-29T15:18:58;8.93;;;3.15;;
32333;SDS011;18810;53.040;8.850;2022-12-29T15:21:29;6.82;;;2.63;;
32333;SDS011;18810;53.040;8.850;2022-12-29T15:23:56;7.63;;;2.58;;
32333;SDS011;18810;53.040;8.850;2022-12-29T15:26:23;5.78;;;2.85;;
32333;SDS011;18810;53.040;8.850;2022-12-29T15:29:00;9.00;;;3.03;;
32333;SDS011;18810;53.040;8.850;2022-12-29T15:31:26;10.70;;;3.08;;
32333;SDS011;18810;53.040;8.850;2022-12-29T15:33:54;8.15;;;2.90;;
32333;SDS011;18810;53.040;8.850;2022-12-29T15:36:27;9.88;;;2.67;;
32333;SDS011;18810;53.040;8.850;2022-12-29T15:39:01;9.20;;;2.75;;
32333;SDS011;18810;53.040;8.850;2022-12-29T15:41:50;11.38;;;2.92;;
32333;SDS011;18810;53.040;8.850;2022-12-29T15:47:06;6.40;;;2.97;;
32333;SDS011;18810;53.040;8.850;2022-12-29T15:49:41;8.45;;;2.67;;
32333;SDS011;18810;53.040;8.850;2022-12-29T15:52:08;8.18;;;3.75;;
32333;SDS011;18810;53.040;8.850;2022-12-29T15:54:35;6.97;;;3.38;;
32333;SDS011;18810;53.040;8.850;2022-12-29T15:57:02;7.25;;;3.25;;
32333;SDS011;18810;53.040;8.850;2022-12-29T15:59:29;8.55;;;3.47;;
32333;SDS011;18810;53.040;8.850;2022-12-29T16:01:58;7.60;;;3.47;;
32333;SDS011;18810;53.040;8.850;2022-12-29T16:04:26;8.23;;;3.70;;
32333;SDS011;18810;53.040;8.850;2022-12-29T16:06:58;12.48;;;4.43;;
32333;SDS011;18810;53.040;8.850;2022-12-29T16:09:32;11.02;;;3.85;;
32333;SDS011;18810;53.040;8.850;2022-12-29T16:12:02;9.30;;;3.65;;
32333;SDS011;18810;53.040;8.850;2022-12-29T16:14:34;7.93;;;3.83;;
32333;SDS011;18810;53.040;8.850;2022-12-29T16:17:05;12.35;;;4.90;;
32333;SDS011;18810;53.040;8.850;2022-12-29T16:19:38;11.57;;;3.88;;
32333;SDS011;18810;53.040;8.850;2022-12-29T16:22:10;10.10;;;4.00;;
32333;SDS011;18810;53.040;8.850;2022-12-29T16:24:50;13.25;;;4.55;;
32333;SDS011;18810;53.040;8.850;2022-12-29T16:30:16;16.80;;;4.35;;
32333;SDS011;18810;53.040;8.850;2022-12-29T16:32:48;9.65;;;3.67;;
32333;SDS011;18810;53.040;8.850;2022-12-29T16:35:23;14.43;;;4.53;;
32333;SDS011;18810;53.040;8.850;2022-12-29T16:40:53;10.30;;;4.38;;
32333;SDS011;18810;53.040;8.850;2022-12-29T16:48:26;14.05;;;5.45;;
32333;SDS011;18810;53.040;8.850;2022-12-29T16:51:00;12.18;;;4.80;;
32333;SDS011;18810;53.040;8.850;2022-12-29T16:53:39;11.02;;;5.13;;
32333;SDS011;18810;53.040;8.850;2022-12-29T16:56:08;13.45;;;5.32;;
32333;SDS011;18810;53.040;8.850;2022-12-29T16:58:51;15.90;;;5.20;;
32333;SDS011;18810;53.040;8.850;2022-12-29T17:01:37;17.63;;;5.00;;
32333;SDS011;18810;53.040;8.850;2022-12-29T17:04:05;10.98;;;4.70;;
32333;SDS011;18810;53.040;8.850;2022-12-29T17:06:33;32.92;;;12.10;;
32333;SDS011;18810;53.040;8.850;2022-12-29T17:08:58;15.90;;;6.43;;
32333;SDS011;18810;53.040;8.850;2022-12-29T17:11:28;21.25;;;9.88;;
32333;SDS011;18810;53.040;8.850;2022-12-29T17:14:23;15.38;;;6.43;;
32333;SDS011;18810;53.040;8.850;2022-12-29T17:17:03;14.02;;;5.60;;
32333;SDS011;18810;53.040;8.850;2022-12-29T17:19:32;18.55;;;5.50;;
32333;SDS011;18810;53.040;8.850;2022-12-29T17:22:01;17.60;;;6.25;;
32333;SDS011;18810;53.040;8.850;2022-12-29T17:24:27;16.38;;;7.28;;
32333;SDS011;18810;53.040;8.850;2022-12-29T17:26:55;11.73;;;5.55;;
32333;SDS011;18810;53.040;8.850;2022-12-29T17:29:33;14.88;;;5.88;;
32333;SDS011;18810;53.040;8.850;2022-12-29T17:32:04;19.75;;;6.57;;
32333;SDS011;18810;53.040;8.850;2022-12-29T17:34:34;19.95;;;6.18;;
32333;SDS011;18810;53.040;8.850;2022-12-29T17:37:00;16.80;;;6.53;;
32333;SDS011;18810;53.040;8.850;2022-12-29T17:39:26;12.60;;;6.45;;
32333;SDS011;18810;53.040;8.850;2022-12-29T17:41:51;18.33;;;7.63;;
32333;SDS011;18810;53.040;8.850;2022-12-29T17:44:18;16.50;;;9.93;;
32333;SDS011;18810;53.040;8.850;2022-12-29T17:46:46;15.43;;;8.18;;
32333;SDS011;18810;53.040;8.850;2022-12-29T17:49:13;19.00;;;7.22;;
32333;SDS011;18810;53.040;8.850;2022-12-29T17:51:41;10.98;;;5.93;;